Time;durP1;ratioP1;P1;durP2;ratioP2;P2;SDS_P1;SDS_P2;PMS_P1;PMS_P2;Temp;Humidity;BMP_temperature;BMP_pressure;BME280_temperature;BME280_humidity;BME280_pressure;Samples;Min_cycle;Max_cycle;Signal;HPM_P1;HPM_P2
2022/10/15 00:01:16;;;;;;;143.87;47.73;;;12.20;99.90;;;;;;5035565;28;20306;-77
2022/10/15 00:03:44;;;;;;;154.57;48.97;;;12.20;99.90;;;;;;5038370;28;20295;-77
2022/10/15 00:06:17;;;;;;;149.57;47.07;;;12.20;99.90;;;;;;5036786;28;20198;-77
2022/10/15 00:08:45;;;;;;;160.43;49.53;;;12.10;99.90;;;;;;5036158;28;20229;-77
2022/10/15 00:11:15;;;;;;;154.20;48.20;;;12.10;99.90;;;;;;5039381;28;20300;-77
2022/10/15 00:13:42;;;;;;;158.63;47.07;;;12.10;99.90;;;;;;5018842;28;20296;-76
2022/10/15 00:16:13;;;;;;;153.60;48.73;;;12.10;99.90;;;;;;5038584;28;20280;-76
2022/10/15 00:18:41;;;;;;;152.87;49.47;;;12.10;99.90;;;;;;5038114;28;20248;-76
2022/10/15 00:21:10;;;;;;;142.60;47.23;;;12.00;99.90;;;;;;5038476;28;20971;-77
2022/10/15 00:23:37;;;;;;;153.60;47.43;;;12.00;99.90;;;;;;5037324;28;20292;-76
2022/10/15 00:26:07;;;;;;;143.73;46.23;;;12.00;99.90;;;;;;5038310;28;20303;-78
2022/10/15 00:28:33;;;;;;;163.90;50.47;;;12.00;99.90;;;;;;5020014;28;20270;-77
2022/10/15 00:31:06;;;;;;;148.30;49.97;;;12.00;99.90;;;;;;5042434;28;20201;-77
2022/10/15 00:33:34;;;;;;;155.13;49.70;;;11.90;99.90;;;;;;5040515;28;20298;-77
2022/10/15 00:36:06;;;;;;;171.60;50.23;;;11.80;99.90;;;;;;5035322;28;20329;-77
2022/10/15 00:38:34;;;;;;;166.30;50.53;;;11.90;99.90;;;;;;5018463;28;20285;-76
2022/10/15 00:41:03;;;;;;;153.97;48.90;;;11.80;99.90;;;;;;5021230;28;20252;-78
2022/10/15 00:43:49;;;;;;;156.70;50.57;;;11.90;99.90;;;;;;5034998;28;20206;-76
2022/10/15 00:46:22;;;;;;;149.00;51.27;;;11.90;99.90;;;;;;5037447;28;20298;-77
2022/10/15 00:49:01;;;;;;;162.83;51.17;;;11.80;99.90;;;;;;5036149;28;20324;-76
2022/10/15 00:51:34;;;;;;;160.17;52.37;;;11.80;99.90;;;;;;5040618;28;20279;-77
2022/10/15 00:54:01;;;;;;;171.37;53.73;;;11.80;99.90;;;;;;5033222;28;20280;-77
2022/10/15 00:56:31;;;;;;;165.17;56.13;;;11.80;99.90;;;;;;5034645;28;20725;-76
2022/10/15 00:58:59;;;;;;;170.37;53.47;;;11.80;99.90;;;;;;5020858;28;20626;-77
2022/10/15 01:01:25;;;;;;;179.87;55.53;;;11.80;99.90;;;;;;5039308;28;20198;-75
2022/10/15 01:03:54;;;;;;;192.10;57.17;;;11.80;99.90;;;;;;5039899;28;20722;-75
2022/10/15 01:06:22;;;;;;;185.27;60.23;;;11.90;99.90;;;;;;5023830;28;20205;-77
2022/10/15 01:08:49;;;;;;;194.23;61.00;;;12.00;99.90;;;;;;5023378;28;20343;-76
2022/10/15 01:11:49;;;;;;;187.87;56.37;;;12.00;99.90;;;;;;5020858;28;20209;-75
2022/10/15 01:14:44;;;;;;;171.23;55.50;;;12.10;99.90;;;;;;4988023;28;20663;-77
2022/10/15 01:17:39;;;;;;;174.10;53.97;;;12.10;99.90;;;;;;5020769;28;20229;-76
2022/10/15 01:20:40;;;;;;;182.70;56.50;;;12.20;99.90;;;;;;5021143;28;20276;-77
2022/10/15 01:23:33;;;;;;;195.43;55.80;;;12.20;99.90;;;;;;5043936;28;20197;-77
2022/10/15 01:26:07;;;;;;;176.40;57.23;;;12.20;99.90;;;;;;5026859;28;20824;-77
2022/10/15 01:29:06;;;;;;;169.93;54.97;;;12.30;99.90;;;;;;5023056;28;20327;-75
2022/10/15 01:31:45;;;;;;;176.93;56.43;;;12.30;99.90;;;;;;5027955;28;20336;-75
2022/10/15 01:34:21;;;;;;;167.90;54.93;;;12.30;99.90;;;;;;5022968;28;20239;-76
2022/10/15 01:37:06;;;;;;;154.23;54.80;;;12.40;99.90;;;;;;5024419;28;20219;-76
2022/10/15 01:39:49;;;;;;;158.30;53.53;;;12.40;99.90;;;;;;5037642;28;20268;-76
2022/10/15 01:42:26;;;;;;;145.03;53.17;;;12.40;99.90;;;;;;5024607;28;20290;-76
2022/10/15 01:44:59;;;;;;;150.37;53.10;;;12.40;99.90;;;;;;5024204;28;20205;-76
2022/10/15 01:47:30;;;;;;;148.50;51.37;;;12.40;99.90;;;;;;5022893;28;20214;-77
2022/10/15 01:50:00;;;;;;;157.27;53.27;;;12.40;99.90;;;;;;5038519;28;20233;-75
2022/10/15 01:52:31;;;;;;;161.87;53.60;;;12.40;99.90;;;;;;5041405;28;20236;-76
2022/10/15 01:54:59;;;;;;;161.50;53.53;;;12.30;99.90;;;;;;5020442;28;20291;-76
2022/10/15 01:57:28;;;;;;;165.70;53.17;;;12.30;99.90;;;;;;5042007;28;20284;-77
2022/10/15 01:59:56;;;;;;;157.90;53.83;;;12.30;99.90;;;;;;5042237;28;20205;-75
2022/10/15 02:02:23;;;;;;;157.67;54.20;;;12.40;99.90;;;;;;5041400;28;20725;-75
2022/10/15 02:04:51;;;;;;;158.17;53.13;;;12.50;99.90;;;;;;5037448;28;20279;-76
2022/10/15 02:07:46;;;;;;;158.83;53.57;;;12.50;99.90;;;;;;5022794;28;20240;-76
2022/10/15 02:10:27;;;;;;;158.70;54.53;;;12.50;99.90;;;;;;5024825;28;20221;-76
2022/10/15 02:13:18;;;;;;;159.87;56.27;;;12.50;99.90;;;;;;5040185;28;20239;-76
2022/10/15 02:16:33;;;;;;;181.17;57.73;;;12.50;99.90;;;;;;5030720;28;20217;-76
2022/10/15 02:19:14;;;;;;;157.30;55.07;;;12.50;99.90;;;;;;5011936;28;20308;-76
2022/10/15 02:21:46;;;;;;;171.47;58.63;;;12.50;99.90;;;;;;5039486;28;20286;-77
2022/10/15 02:24:22;;;;;;;177.87;58.17;;;12.50;99.90;;;;;;5018660;28;20267;-76
2022/10/15 02:26:53;;;;;;;168.13;55.90;;;12.50;99.90;;;;;;5023238;28;20666;-76
2022/10/15 02:29:24;;;;;;;170.73;55.17;;;12.70;99.90;;;;;;5042297;28;20322;-77
2022/10/15 02:31:52;;;;;;;175.80;55.90;;;12.60;99.90;;;;;;5019774;28;20202;-75
2022/10/15 02:34:24;;;;;;;172.10;55.03;;;12.60;99.90;;;;;;5040519;28;20327;-76
2022/10/15 02:36:52;;;;;;;161.97;53.07;;;12.60;99.90;;;;;;5038366;28;20305;-76
2022/10/15 02:39:23;;;;;;;169.17;53.47;;;12.50;99.90;;;;;;5041327;28;20209;-76
2022/10/15 02:41:52;;;;;;;170.47;52.80;;;12.50;99.90;;;;;;5023179;28;20262;-76
2022/10/15 02:44:20;;;;;;;171.53;56.80;;;12.50;99.90;;;;;;5022476;28;20292;-77
2022/10/15 02:46:47;;;;;;;185.37;57.27;;;12.50;99.90;;;;;;5038071;28;20297;-76
2022/10/15 02:49:14;;;;;;;188.80;55.40;;;12.40;99.90;;;;;;5022141;28;20241;-75
2022/10/15 02:51:41;;;;;;;176.60;55.80;;;12.40;99.90;;;;;;5036500;28;20202;-77
2022/10/15 02:54:08;;;;;;;175.17;54.10;;;12.40;99.90;;;;;;5022779;28;20657;-75
2022/10/15 02:56:38;;;;;;;172.13;53.97;;;12.40;99.90;;;;;;5034561;28;20220;-77
2022/10/15 02:59:05;;;;;;;173.47;54.23;;;12.50;99.90;;;;;;5020239;28;20237;-76
2022/10/15 03:01:33;;;;;;;195.10;56.67;;;12.40;99.90;;;;;;5043606;28;20301;-75
2022/10/15 03:04:01;;;;;;;165.87;52.50;;;12.30;99.90;;;;;;5019247;28;20228;-76
2022/10/15 03:06:28;;;;;;;183.13;53.40;;;12.30;99.90;;;;;;5022061;28;20202;-78
2022/10/15 03:08:54;;;;;;;177.50;53.60;;;12.20;99.90;;;;;;5022964;28;20435;-76
2022/10/15 03:11:21;;;;;;;184.37;54.57;;;12.20;99.90;;;;;;5029922;28;20620;-76
2022/10/15 03:13:48;;;;;;;189.23;55.17;;;12.20;99.90;;;;;;5020608;28;20681;-76
2022/10/15 03:16:15;;;;;;;172.97;53.07;;;12.20;99.90;;;;;;5038947;28;20205;-76
2022/10/15 03:18:42;;;;;;;188.70;56.57;;;12.20;99.90;;;;;;5020000;28;20674;-76
2022/10/15 03:21:09;;;;;;;202.57;56.33;;;12.10;99.90;;;;;;5021503;28;20229;-76
2022/10/15 03:23:36;;;;;;;186.00;55.47;;;12.20;99.90;;;;;;5030046;28;20305;-77
2022/10/15 03:26:20;;;;;;;208.07;57.67;;;12.20;99.90;;;;;;5020372;28;20210;-77
2022/10/15 03:28:47;;;;;;;189.73;56.67;;;12.20;99.90;;;;;;5028898;28;20598;-77
2022/10/15 03:31:17;;;;;;;177.53;54.30;;;12.20;99.90;;;;;;5021002;28;20213;-77
2022/10/15 03:33:47;;;;;;;182.73;55.23;;;12.20;99.90;;;;;;5006260;28;20603;-76
2022/10/15 03:36:14;;;;;;;196.40;56.10;;;12.30;99.90;;;;;;5019784;28;20201;-77
2022/10/15 03:38:44;;;;;;;203.70;56.13;;;12.20;99.90;;;;;;5029451;28;20518;-75
2022/10/15 03:41:11;;;;;;;193.53;54.50;;;12.20;99.90;;;;;;5038381;28;20687;-77
2022/10/15 03:43:38;;;;;;;198.53;55.90;;;12.10;99.90;;;;;;5021254;28;20201;-76
2022/10/15 03:46:08;;;;;;;202.03;56.63;;;12.10;99.90;;;;;;5021977;28;20212;-76
2022/10/15 03:48:35;;;;;;;219.80;60.30;;;12.00;99.90;;;;;;5037120;28;20216;-75
2022/10/15 03:51:02;;;;;;;213.63;58.40;;;12.00;99.90;;;;;;5023186;28;20206;-75
2022/10/15 03:53:29;;;;;;;221.57;57.97;;;12.00;99.90;;;;;;5035902;28;20210;-76
2022/10/15 03:56:02;;;;;;;204.90;59.63;;;12.00;99.90;;;;;;5019212;28;20232;-75
2022/10/15 03:58:29;;;;;;;230.90;61.13;;;12.00;99.90;;;;;;5036650;28;20533;-76
2022/10/15 04:00:56;;;;;;;225.40;59.03;;;11.90;99.90;;;;;;5023287;28;20227;-76
2022/10/15 04:03:23;;;;;;;216.60;59.17;;;12.00;99.90;;;;;;5040620;28;20685;-75
2022/10/15 04:05:51;;;;;;;201.20;59.17;;;12.00;99.90;;;;;;5036796;28;20249;-76
2022/10/15 04:08:20;;;;;;;218.37;61.50;;;12.10;99.90;;;;;;5019088;28;20205;-76
2022/10/15 04:10:49;;;;;;;196.10;59.43;;;12.20;99.90;;;;;;5023585;28;20315;-76
2022/10/15 04:13:16;;;;;;;200.20;58.83;;;12.10;99.90;;;;;;5028217;28;20210;-76
2022/10/15 04:15:43;;;;;;;216.90;57.57;;;12.10;99.90;;;;;;5018729;28;20315;-75
2022/10/15 04:18:10;;;;;;;204.13;59.67;;;12.10;99.90;;;;;;5031930;28;20231;-75
2022/10/15 04:20:37;;;;;;;198.13;56.00;;;12.10;99.90;;;;;;5035014;28;20244;-77
2022/10/15 04:23:04;;;;;;;187.10;56.43;;;12.10;99.90;;;;;;5042310;28;20270;-76
2022/10/15 04:25:31;;;;;;;210.40;59.27;;;12.20;99.90;;;;;;5039852;28;20209;-76
2022/10/15 04:27:58;;;;;;;219.87;58.50;;;12.10;99.90;;;;;;5053995;28;20216;-75
2022/10/15 04:30:25;;;;;;;184.47;54.53;;;12.10;99.90;;;;;;5033663;28;20229;-76
2022/10/15 04:32:52;;;;;;;215.73;58.47;;;12.10;99.90;;;;;;5037900;28;20320;-76
2022/10/15 04:35:20;;;;;;;179.30;52.77;;;12.10;99.90;;;;;;5038014;28;20253;-76
2022/10/15 04:37:47;;;;;;;186.17;59.07;;;12.10;99.90;;;;;;5020354;28;20286;-76
2022/10/15 04:40:14;;;;;;;197.27;59.23;;;12.10;99.90;;;;;;5027900;28;20301;-77
2022/10/15 04:42:41;;;;;;;186.50;56.10;;;12.10;99.90;;;;;;5018450;28;20204;-76
2022/10/15 04:45:08;;;;;;;204.53;58.53;;;12.10;99.90;;;;;;5018341;28;20289;-76
2022/10/15 04:47:35;;;;;;;208.97;58.97;;;12.00;99.90;;;;;;5018731;28;20598;-75
2022/10/15 04:50:02;;;;;;;220.60;60.03;;;12.10;99.90;;;;;;5020267;28;20717;-77
2022/10/15 04:52:29;;;;;;;208.50;61.83;;;12.00;99.90;;;;;;5020136;28;20256;-77
2022/10/15 04:54:57;;;;;;;202.50;60.07;;;12.00;99.90;;;;;;5019529;28;20584;-76
2022/10/15 04:57:25;;;;;;;223.97;61.93;;;11.90;99.90;;;;;;5026987;28;20228;-77
2022/10/15 04:59:53;;;;;;;242.17;62.83;;;11.90;99.90;;;;;;5034072;28;20201;-76
2022/10/15 05:02:23;;;;;;;230.40;61.77;;;11.90;99.90;;;;;;5047661;28;20209;-77
2022/10/15 05:04:50;;;;;;;227.93;63.47;;;11.90;99.90;;;;;;5022101;28;20229;-77
2022/10/15 05:07:17;;;;;;;227.87;60.97;;;11.90;99.90;;;;;;5020391;28;20228;-77
2022/10/15 05:09:44;;;;;;;223.70;63.10;;;11.90;99.90;;;;;;5021083;28;20233;-78
2022/10/15 05:12:12;;;;;;;234.40;65.20;;;11.90;99.90;;;;;;5022588;28;20236;-77
2022/10/15 05:14:40;;;;;;;226.27;61.30;;;11.90;99.90;;;;;;5039703;28;20201;-75
2022/10/15 05:17:07;;;;;;;222.27;63.77;;;11.90;99.90;;;;;;5021769;28;20278;-76
2022/10/15 05:19:34;;;;;;;249.97;64.70;;;11.90;99.90;;;;;;5042599;28;20721;-76
2022/10/15 05:22:00;;;;;;;252.30;67.27;;;11.90;99.90;;;;;;5037466;28;20270;-76
2022/10/15 05:24:27;;;;;;;244.60;67.00;;;11.90;99.90;;;;;;5022409;28;20259;-75
2022/10/15 05:26:54;;;;;;;245.17;65.93;;;11.90;99.90;;;;;;5040519;28;20209;-76
2022/10/15 05:29:21;;;;;;;240.33;70.17;;;11.90;99.90;;;;;;5028452;28;20593;-77
2022/10/15 05:31:51;;;;;;;241.07;67.47;;;12.00;99.90;;;;;;5027409;28;20379;-75
2022/10/15 05:34:20;;;;;;;240.43;67.57;;;12.00;99.90;;;;;;5032864;28;20284;-75
2022/10/15 05:36:47;;;;;;;229.77;67.90;;;12.00;99.90;;;;;;5039274;28;20871;-76
2022/10/15 05:39:13;;;;;;;234.10;66.17;;;12.10;99.90;;;;;;5024304;28;20645;-76
2022/10/15 05:41:41;;;;;;;243.77;68.33;;;12.10;99.90;;;;;;5019762;28;20538;-76
2022/10/15 05:44:08;;;;;;;263.07;68.77;;;12.10;99.90;;;;;;5010055;28;20225;-75
2022/10/15 05:46:34;;;;;;;262.33;70.70;;;12.20;99.90;;;;;;5026650;28;20200;-76
2022/10/15 05:49:01;;;;;;;268.20;72.63;;;12.20;99.90;;;;;;5039626;28;20232;-76
2022/10/15 05:51:28;;;;;;;275.47;73.03;;;12.20;99.90;;;;;;5048363;28;20339;-76
2022/10/15 05:53:57;;;;;;;263.57;74.43;;;12.30;99.90;;;;;;5047898;28;20232;-76
2022/10/15 05:56:25;;;;;;;264.53;71.47;;;12.30;99.90;;;;;;5047081;28;20209;-77
2022/10/15 05:58:51;;;;;;;251.53;69.30;;;12.30;99.90;;;;;;5045603;28;20193;-76
2022/10/15 06:01:18;;;;;;;279.03;73.07;;;12.40;99.90;;;;;;5049494;28;20223;-76
2022/10/15 06:03:45;;;;;;;289.07;75.27;;;12.40;99.90;;;;;;5048270;28;20205;-76
2022/10/15 06:06:23;;;;;;;261.67;68.93;;;12.40;99.90;;;;;;5031835;28;20225;-74
2022/10/15 06:08:52;;;;;;;249.77;68.67;;;12.50;99.90;;;;;;5043061;28;20205;-76
2022/10/15 06:11:19;;;;;;;266.10;68.57;;;12.50;99.90;;;;;;5047226;28;20213;-76
2022/10/15 06:13:46;;;;;;;258.87;71.80;;;12.50;99.90;;;;;;5028386;28;20297;-77
2022/10/15 06:16:15;;;;;;;258.87;74.23;;;12.50;99.90;;;;;;5037815;28;20623;-76
2022/10/15 06:18:48;;;;;;;283.13;68.97;;;12.60;99.90;;;;;;5026403;28;20661;-77
2022/10/15 06:21:15;;;;;;;285.57;72.17;;;12.60;99.90;;;;;;5040012;28;20215;-77
2022/10/15 06:23:42;;;;;;;245.50;68.93;;;12.60;99.90;;;;;;5017502;28;20206;-78
2022/10/15 06:26:09;;;;;;;247.77;67.80;;;12.60;99.90;;;;;;5038532;28;20206;-76
2022/10/15 06:28:36;;;;;;;259.33;70.20;;;12.70;99.90;;;;;;5042551;28;20205;-76
2022/10/15 06:31:05;;;;;;;256.30;67.13;;;12.70;99.90;;;;;;5043597;28;20257;-75
2022/10/15 06:33:32;;;;;;;314.17;74.53;;;12.70;99.90;;;;;;5041570;28;20202;-76
2022/10/15 06:36:05;;;;;;;246.03;69.03;;;12.70;99.90;;;;;;5046007;28;20284;-76
2022/10/15 06:38:32;;;;;;;268.53;71.67;;;12.80;99.90;;;;;;5036088;28;20288;-76
2022/10/15 06:41:02;;;;;;;256.00;70.50;;;12.70;99.90;;;;;;5036739;28;20255;-75
2022/10/15 06:43:29;;;;;;;251.90;69.17;;;12.80;99.90;;;;;;5042720;28;20243;-75
2022/10/15 06:45:59;;;;;;;253.97;69.87;;;12.90;99.90;;;;;;5023096;28;20213;-75
2022/10/15 06:48:26;;;;;;;251.87;70.10;;;12.90;99.90;;;;;;5038817;28;20224;-77
2022/10/15 06:50:53;;;;;;;260.93;68.67;;;12.90;99.90;;;;;;5040745;28;20314;-76
2022/10/15 06:53:21;;;;;;;272.07;69.93;;;12.90;99.90;;;;;;5036448;28;20197;-75
2022/10/15 06:55:48;;;;;;;271.07;71.67;;;13.00;99.90;;;;;;5018822;28;20892;-77
2022/10/15 06:58:15;;;;;;;249.63;67.47;;;13.00;99.90;;;;;;5041275;28;20264;-76
2022/10/15 07:00:42;;;;;;;248.07;64.60;;;13.10;99.90;;;;;;5039945;28;20632;-77
2022/10/15 07:03:08;;;;;;;226.17;62.60;;;13.10;99.90;;;;;;5042567;28;20198;-76
2022/10/15 07:05:35;;;;;;;220.90;62.30;;;13.20;99.90;;;;;;5028280;28;20261;-76
2022/10/15 07:08:02;;;;;;;211.60;58.90;;;13.20;99.90;;;;;;5031016;28;20324;-77
2022/10/15 07:10:29;;;;;;;192.67;59.03;;;13.30;99.90;;;;;;5038532;28;20217;-76
2022/10/15 07:12:59;;;;;;;197.20;58.30;;;13.30;99.90;;;;;;5040263;28;20284;-77
2022/10/15 07:15:26;;;;;;;198.90;58.10;;;13.40;99.90;;;;;;5038339;28;20452;-77
2022/10/15 07:18:00;;;;;;;170.70;54.17;;;13.40;99.90;;;;;;5046585;28;20331;-77
2022/10/15 07:20:30;;;;;;;149.63;49.30;;;13.40;99.90;;;;;;5040534;28;20308;-77
2022/10/15 07:22:59;;;;;;;145.57;47.73;;;13.40;99.90;;;;;;5040047;28;20246;-78
2022/10/15 07:25:27;;;;;;;138.20;45.23;;;13.40;99.90;;;;;;5040227;28;20201;-76
2022/10/15 07:27:55;;;;;;;124.77;41.70;;;13.50;99.90;;;;;;5021337;28;20219;-76
2022/10/15 07:30:26;;;;;;;124.73;43.60;;;13.40;99.90;;;;;;5039410;28;20686;-77
2022/10/15 07:32:55;;;;;;;125.43;40.30;;;13.50;99.90;;;;;;5041166;28;20611;-76
2022/10/15 07:35:22;;;;;;;125.33;42.37;;;13.50;99.90;;;;;;5036226;28;20241;-76
2022/10/15 07:37:49;;;;;;;125.03;43.17;;;13.50;99.90;;;;;;5045105;28;20207;-75
2022/10/15 07:40:17;;;;;;;131.20;43.93;;;13.50;99.90;;;;;;5037026;28;20217;-76
2022/10/15 07:42:44;;;;;;;131.70;42.10;;;13.60;99.90;;;;;;5021826;28;20304;-76
2022/10/15 07:45:11;;;;;;;123.70;41.63;;;13.60;99.90;;;;;;5037295;28;20210;-77
2022/10/15 07:47:40;;;;;;;128.17;40.90;;;13.60;99.90;;;;;;5036552;28;20237;-77
2022/10/15 07:50:07;;;;;;;119.03;39.17;;;13.70;99.90;;;;;;5036713;28;20225;-75
2022/10/15 07:52:34;;;;;;;113.17;39.97;;;13.70;99.90;;;;;;5044655;28;20212;-76
2022/10/15 07:55:00;;;;;;;114.37;38.83;;;13.80;99.90;;;;;;5018934;28;20684;-76
2022/10/15 07:57:27;;;;;;;109.17;37.00;;;13.70;99.90;;;;;;5016676;28;20202;-77
2022/10/15 07:59:54;;;;;;;100.77;35.87;;;13.80;99.90;;;;;;5039855;28;20527;-78
2022/10/15 08:02:21;;;;;;;100.20;36.57;;;13.90;99.90;;;;;;5037905;28;20965;-76
2022/10/15 08:04:49;;;;;;;94.40;33.00;;;13.80;99.90;;;;;;5039687;28;20244;-76
2022/10/15 08:07:15;;;;;;;82.93;31.70;;;14.10;99.90;;;;;;5046185;28;20252;-76
2022/10/15 08:09:42;;;;;;;93.07;32.63;;;13.90;99.90;;;;;;5036451;28;20205;-76
2022/10/15 08:12:09;;;;;;;76.70;29.03;;;14.00;99.90;;;;;;5038537;28;20197;-78
2022/10/15 08:14:37;;;;;;;58.77;27.10;;;14.10;99.90;;;;;;5040659;28;20301;-77
2022/10/15 08:17:04;;;;;;;67.07;27.37;;;14.10;99.90;;;;;;5021055;28;20261;-78
2022/10/15 08:19:32;;;;;;;63.87;26.83;;;14.10;99.90;;;;;;5039454;28;20864;-76
2022/10/15 08:21:59;;;;;;;64.93;27.43;;;14.20;99.90;;;;;;5045849;28;20208;-75
2022/10/15 08:24:25;;;;;;;59.83;25.63;;;14.20;99.90;;;;;;5018686;28;20198;-77
2022/10/15 08:26:52;;;;;;;60.30;25.97;;;14.20;99.90;;;;;;5037407;28;20229;-78
2022/10/15 08:29:19;;;;;;;70.07;27.50;;;14.30;99.90;;;;;;5040089;28;20237;-77
2022/10/15 08:31:46;;;;;;;61.47;25.80;;;14.40;99.90;;;;;;5038159;28;20228;-78
2022/10/15 08:34:13;;;;;;;55.73;25.70;;;14.50;99.90;;;;;;5038511;28;20681;-76
2022/10/15 08:36:40;;;;;;;52.40;23.63;;;14.50;99.90;;;;;;5037924;28;20697;-77
2022/10/15 08:39:08;;;;;;;55.17;23.87;;;14.60;99.90;;;;;;5026283;28;20285;-76
2022/10/15 08:41:48;;;;;;;50.50;23.50;;;14.60;99.90;;;;;;5026422;28;20748;-77
2022/10/15 08:44:24;;;;;;;54.27;23.70;;;14.60;99.90;;;;;;5026532;28;20220;-77
2022/10/15 08:47:14;;;;;;;51.73;24.17;;;14.60;99.90;;;;;;5036471;28;20642;-77
2022/10/15 08:49:52;;;;;;;56.93;24.77;;;14.60;99.90;;;;;;5001382;28;20308;-76
2022/10/15 08:52:41;;;;;;;53.23;24.87;;;14.60;99.90;;;;;;5035659;28;20237;-75
2022/10/15 08:55:12;;;;;;;54.20;25.07;;;14.70;99.90;;;;;;5036439;28;20655;-78
2022/10/15 08:57:47;;;;;;;50.53;25.13;;;14.90;99.90;;;;;;5035468;28;20209;-76
2022/10/15 09:00:24;;;;;;;52.03;25.33;;;15.10;99.90;;;;;;5036817;28;20201;-75
2022/10/15 09:02:58;;;;;;;48.33;25.88;;;15.20;99.90;;;;;;5037582;28;20237;-77
2022/10/15 09:05:49;;;;;;;45.67;23.90;;;15.40;99.90;;;;;;5035968;28;20230;-76
2022/10/15 09:08:39;;;;;;;47.92;25.35;;;15.50;99.90;;;;;;5036769;28;20254;-76
2022/10/15 09:11:27;;;;;;;46.47;25.08;;;15.50;99.90;;;;;;5037229;28;20715;-77
2022/10/15 09:13:54;;;;;;;48.80;24.70;;;15.50;99.90;;;;;;5038574;28;20197;-78
2022/10/15 09:16:34;;;;;;;42.85;24.77;;;15.60;99.90;;;;;;5035867;28;20313;-75
2022/10/15 09:19:04;;;;;;;43.00;24.20;;;15.60;99.90;;;;;;5036203;28;20222;-76
2022/10/15 09:21:34;;;;;;;41.83;22.63;;;15.60;99.90;;;;;;5021412;28;20214;-76
2022/10/15 09:24:02;;;;;;;42.25;23.13;;;15.70;99.90;;;;;;5037889;28;20204;-77
2022/10/15 09:26:44;;;;;;;39.53;22.52;;;15.70;99.90;;;;;;5042206;28;20209;-76
2022/10/15 09:29:23;;;;;;;39.80;23.15;;;15.80;99.90;;;;;;5040471;28;20645;-77
2022/10/15 09:32:00;;;;;;;32.55;19.27;;;15.90;99.90;;;;;;5038996;28;20706;-77
2022/10/15 09:34:38;;;;;;;34.85;19.42;;;16.00;99.90;;;;;;5038198;28;20316;-77
2022/10/15 09:37:30;;;;;;;32.85;19.55;;;16.00;99.90;;;;;;5038799;28;20746;-76
2022/10/15 09:40:17;;;;;;;28.95;18.50;;;16.10;99.90;;;;;;5030617;28;20654;-77
2022/10/15 09:42:48;;;;;;;29.15;16.95;;;16.10;99.90;;;;;;5019706;28;20244;-77
2022/10/15 09:45:16;;;;;;;30.30;18.17;;;16.20;99.90;;;;;;5030220;28;20244;-75
2022/10/15 09:47:43;;;;;;;27.98;17.52;;;16.30;99.90;;;;;;5030115;28;20221;-77
2022/10/15 09:50:12;;;;;;;28.20;17.60;;;16.30;99.90;;;;;;5030458;28;20222;-76
2022/10/15 09:53:13;;;;;;;29.95;19.55;;;16.40;99.90;;;;;;5029675;28;20216;-77
2022/10/15 09:55:49;;;;;;;27.23;15.90;;;16.40;99.90;;;;;;5036847;28;20247;-76
2022/10/15 09:58:38;;;;;;;25.80;15.60;;;16.50;99.90;;;;;;5039612;28;20301;-77
2022/10/15 10:01:06;;;;;;;23.10;13.80;;;16.70;99.90;;;;;;5041695;28;20360;-77
2022/10/15 10:03:35;;;;;;;22.50;15.00;;;16.70;99.90;;;;;;5029749;28;20210;-78
2022/10/15 10:06:10;;;;;;;19.67;13.95;;;16.80;99.90;;;;;;5016177;28;20254;-79
2022/10/15 10:08:40;;;;;;;20.67;12.93;;;16.90;99.90;;;;;;5029418;28;20221;-77
2022/10/15 10:11:10;;;;;;;18.08;13.05;;;16.90;99.90;;;;;;5040262;28;20229;-77
2022/10/15 10:13:47;;;;;;;19.67;12.48;;;17.00;99.90;;;;;;5022416;28;20575;-78
2022/10/15 10:16:20;;;;;;;20.70;12.65;;;17.00;99.90;;;;;;5023422;28;20220;-78
2022/10/15 10:19:13;;;;;;;17.88;12.20;;;17.00;99.90;;;;;;5040104;28;20185;-76
2022/10/15 10:21:42;;;;;;;20.02;12.98;;;17.10;99.90;;;;;;5034535;28;20281;-77
2022/10/15 10:24:30;;;;;;;17.77;12.35;;;17.20;99.90;;;;;;5043923;28;20206;-78
2022/10/15 10:26:59;;;;;;;17.98;12.63;;;17.20;99.90;;;;;;5039970;28;20318;-79
2022/10/15 10:29:27;;;;;;;18.52;12.85;;;17.20;99.90;;;;;;5036716;28;20668;-77
2022/10/15 10:32:20;;;;;;;18.08;12.35;;;17.30;99.90;;;;;;5037654;28;20234;-78
2022/10/15 10:34:47;;;;;;;19.42;12.25;;;17.20;99.90;;;;;;5046189;28;20260;-78
2022/10/15 10:37:18;;;;;;;23.92;14.45;;;17.10;99.90;;;;;;5040712;28;20194;-76
2022/10/15 10:39:51;;;;;;;23.75;14.13;;;17.10;99.90;;;;;;5042623;28;20293;-76
2022/10/15 10:42:18;;;;;;;22.00;14.35;;;17.10;99.90;;;;;;5039710;28;20613;-77
2022/10/15 10:44:45;;;;;;;23.75;15.05;;;17.10;99.90;;;;;;5016760;28;20301;-77
2022/10/15 10:47:24;;;;;;;21.42;13.95;;;17.20;99.90;;;;;;5037135;28;20953;-77
2022/10/15 10:49:56;;;;;;;22.65;14.23;;;17.20;99.90;;;;;;5017133;28;20717;-78
2022/10/15 10:52:35;;;;;;;21.42;13.98;;;17.10;99.90;;;;;;5022300;28;20266;-77
2022/10/15 10:55:19;;;;;;;24.30;14.63;;;17.10;99.90;;;;;;5020898;28;20300;-78
2022/10/15 10:58:00;;;;;;;23.45;15.20;;;17.10;99.90;;;;;;5029285;28;20207;-77
2022/10/15 11:00:48;;;;;;;27.05;15.32;;;17.10;99.90;;;;;;5038754;28;20209;-76
2022/10/15 11:03:35;;;;;;;29.08;16.95;;;17.00;99.90;;;;;;5020279;28;20228;-77
2022/10/15 11:06:22;;;;;;;23.55;13.98;;;17.00;99.90;;;;;;5034267;28;20217;-75
2022/10/15 11:09:16;;;;;;;24.88;14.00;;;17.00;99.90;;;;;;5030959;28;20247;-76
2022/10/15 11:12:11;;;;;;;26.75;14.00;;;16.90;99.90;;;;;;5036972;28;20241;-75
2022/10/15 11:14:44;;;;;;;26.23;14.65;;;16.80;99.90;;;;;;5042563;28;20229;-76
2022/10/15 11:17:45;;;;;;;24.65;14.05;;;16.70;99.90;;;;;;5022435;28;20194;-76
2022/10/15 11:20:46;;;;;;;24.92;14.20;;;16.70;99.90;;;;;;5038283;28;20694;-76
2022/10/15 11:23:59;;;;;;;23.73;13.90;;;16.60;99.90;;;;;;5044270;28;20727;-76
2022/10/15 11:26:44;;;;;;;23.67;14.13;;;16.50;99.90;;;;;;5039022;28;20326;-76
2022/10/15 11:29:43;;;;;;;24.73;14.63;;;16.50;99.90;;;;;;5044302;28;20193;-75
2022/10/15 11:32:41;;;;;;;26.33;14.73;;;16.40;99.90;;;;;;5032453;28;20221;-77
2022/10/15 11:36:05;;;;;;;27.80;15.30;;;16.40;99.90;;;;;;5030579;28;20658;-77
2022/10/15 11:38:43;;;;;;;25.58;14.75;;;16.40;99.90;;;;;;5041643;28;20237;-77
2022/10/15 11:41:28;;;;;;;23.90;14.23;;;16.40;99.90;;;;;;5033853;28;20212;-77
2022/10/15 11:44:20;;;;;;;24.55;14.18;;;16.40;99.90;;;;;;5039333;28;20267;-76
2022/10/15 11:47:10;;;;;;;23.88;13.57;;;16.30;99.90;;;;;;5027397;28;20618;-76
2022/10/15 11:49:52;;;;;;;20.38;12.52;;;16.40;99.90;;;;;;5020138;28;20722;-77
2022/10/15 11:52:33;;;;;;;19.38;12.55;;;16.40;99.90;;;;;;5040435;28;20275;-77
2022/10/15 11:55:19;;;;;;;19.92;12.23;;;16.40;99.90;;;;;;5023037;28;20955;-77
2022/10/15 11:57:50;;;;;;;19.58;11.68;;;16.40;99.90;;;;;;5047701;28;20217;-77
2022/10/15 12:00:43;;;;;;;19.25;11.75;;;16.40;99.90;;;;;;5053088;28;20208;-77
2022/10/15 12:03:18;;;;;;;17.48;11.50;;;16.50;99.90;;;;;;5037319;28;20635;-78
2022/10/15 12:05:56;;;;;;;19.08;12.05;;;16.50;99.90;;;;;;5034556;28;20713;-77
2022/10/15 12:08:25;;;;;;;17.67;11.15;;;16.60;99.90;;;;;;5041046;28;20345;-79
2022/10/15 12:11:01;;;;;;;17.88;11.27;;;16.50;99.90;;;;;;5045364;28;20197;-79
2022/10/15 12:13:38;;;;;;;14.07;10.52;;;16.60;99.90;;;;;;5038591;28;20648;-79
2022/10/15 12:16:25;;;;;;;14.38;10.65;;;16.50;99.90;;;;;;5042795;28;20474;-78
2022/10/15 12:19:10;;;;;;;14.38;9.88;;;16.50;99.90;;;;;;5040592;28;20221;-79
2022/10/15 12:21:58;;;;;;;15.43;10.95;;;16.50;99.90;;;;;;5043136;28;20381;-82
2022/10/15 12:24:39;;;;;;;12.95;9.73;;;16.50;99.90;;;;;;5044280;28;20300;-77
2022/10/15 12:27:34;;;;;;;15.63;10.38;;;16.50;99.90;;;;;;5043885;28;20241;-79
2022/10/15 12:30:01;;;;;;;12.50;8.15;;;16.50;99.90;;;;;;5041565;28;20220;-78
2022/10/15 12:32:40;;;;;;;15.80;9.55;;;16.50;99.90;;;;;;5035979;28;20217;-79
2022/10/15 12:35:13;;;;;;;12.40;9.07;;;16.60;99.90;;;;;;5037854;28;20348;-78
2022/10/15 12:37:42;;;;;;;12.27;8.77;;;16.60;99.90;;;;;;5041122;28;20555;-78
2022/10/15 12:40:21;;;;;;;12.45;9.43;;;16.60;99.90;;;;;;5036326;28;20203;-77
2022/10/15 12:43:01;;;;;;;12.45;7.65;;;16.60;99.90;;;;;;5040436;28;20283;-78
2022/10/15 12:45:40;;;;;;;14.20;8.15;;;16.60;99.90;;;;;;5040958;28;20213;-79
2022/10/15 12:48:07;;;;;;;11.02;7.97;;;16.70;99.90;;;;;;5053477;28;20296;-78
2022/10/15 12:50:36;;;;;;;14.38;8.93;;;16.60;99.90;;;;;;5054040;28;20251;-77